sensor_id;sensor_type;location;lat;lon;timestamp;P1;durP1;ratioP1;P2;durP2;ratioP2
18336;SDS011;9294;51.106;7.028;2022-10-16T00:00:36;2.22;;;2.13;;
18336;SDS011;9294;51.106;7.028;2022-10-16T00:03:06;2.40;;;2.30;;
18336;SDS011;9294;51.106;7.028;2022-10-16T00:05:37;2.67;;;2.58;;
18336;SDS011;9294;51.106;7.028;2022-10-16T00:08:06;2.60;;;2.50;;
18336;SDS011;9294;51.106;7.028;2022-10-16T00:10:34;2.45;;;2.25;;
18336;SDS011;9294;51.106;7.028;2022-10-16T00:13:00;2.97;;;2.78;;
18336;SDS011;9294;51.106;7.028;2022-10-16T00:15:27;2.40;;;2.30;;
18336;SDS011;9294;51.106;7.028;2022-10-16T00:17:54;2.42;;;2.33;;
18336;SDS011;9294;51.106;7.028;2022-10-16T00:20:22;2.55;;;2.45;;
18336;SDS011;9294;51.106;7.028;2022-10-16T00:22:49;2.00;;;2.00;;
18336;SDS011;9294;51.106;7.028;2022-10-16T00:25:16;2.30;;;2.20;;
18336;SDS011;9294;51.106;7.028;2022-10-16T00:27:43;2.67;;;2.47;;
18336;SDS011;9294;51.106;7.028;2022-10-16T00:30:10;2.35;;;2.25;;
18336;SDS011;9294;51.106;7.028;2022-10-16T00:32:37;2.38;;;2.28;;
18336;SDS011;9294;51.106;7.028;2022-10-16T00:35:04;2.15;;;2.05;;
18336;SDS011;9294;51.106;7.028;2022-10-16T00:37:33;2.05;;;1.95;;
18336;SDS011;9294;51.106;7.028;2022-10-16T00:39:59;2.08;;;2.05;;
18336;SDS011;9294;51.106;7.028;2022-10-16T00:42:26;2.50;;;2.40;;
18336;SDS011;9294;51.106;7.028;2022-10-16T00:44:54;2.45;;;2.35;;
18336;SDS011;9294;51.106;7.028;2022-10-16T00:47:23;2.03;;;1.92;;
18336;SDS011;9294;51.106;7.028;2022-10-16T00:49:54;2.30;;;2.20;;
18336;SDS011;9294;51.106;7.028;2022-10-16T00:52:25;1.90;;;1.90;;
18336;SDS011;9294;51.106;7.028;2022-10-16T00:54:53;2.40;;;2.30;;
18336;SDS011;9294;51.106;7.028;2022-10-16T00:57:21;1.95;;;1.88;;
18336;SDS011;9294;51.106;7.028;2022-10-16T00:59:48;2.22;;;2.13;;
18336;SDS011;9294;51.106;7.028;2022-10-16T01:02:16;2.30;;;2.20;;
18336;SDS011;9294;51.106;7.028;2022-10-16T01:04:44;1.92;;;1.92;;
18336;SDS011;9294;51.106;7.028;2022-10-16T01:07:14;2.10;;;2.00;;
18336;SDS011;9294;51.106;7.028;2022-10-16T01:09:52;2.20;;;2.10;;
18336;SDS011;9294;51.106;7.028;2022-10-16T01:12:32;2.20;;;1.98;;
18336;SDS011;9294;51.106;7.028;2022-10-16T01:15:08;2.05;;;2.00;;
18336;SDS011;9294;51.106;7.028;2022-10-16T01:17:41;2.15;;;2.05;;
18336;SDS011;9294;51.106;7.028;2022-10-16T01:20:16;1.85;;;1.85;;
18336;SDS011;9294;51.106;7.028;2022-10-16T01:22:55;2.22;;;2.13;;
18336;SDS011;9294;51.106;7.028;2022-10-16T01:25:45;1.90;;;1.90;;
18336;SDS011;9294;51.106;7.028;2022-10-16T01:28:24;2.00;;;1.90;;
18336;SDS011;9294;51.106;7.028;2022-10-16T01:30:56;2.03;;;2.03;;
18336;SDS011;9294;51.106;7.028;2022-10-16T01:33:26;2.10;;;2.00;;
18336;SDS011;9294;51.106;7.028;2022-10-16T01:35:58;2.20;;;2.10;;
18336;SDS011;9294;51.106;7.028;2022-10-16T01:38:29;2.30;;;2.20;;
18336;SDS011;9294;51.106;7.028;2022-10-16T01:41:00;2.00;;;1.88;;
18336;SDS011;9294;51.106;7.028;2022-10-16T01:43:35;2.13;;;2.03;;
18336;SDS011;9294;51.106;7.028;2022-10-16T01:46:05;2.13;;;2.03;;
18336;SDS011;9294;51.106;7.028;2022-10-16T01:48:33;1.83;;;1.83;;
18336;SDS011;9294;51.106;7.028;2022-10-16T01:51:03;2.08;;;1.98;;
18336;SDS011;9294;51.106;7.028;2022-10-16T01:53:32;2.03;;;1.95;;
18336;SDS011;9294;51.106;7.028;2022-10-16T01:56:00;1.90;;;1.80;;
18336;SDS011;9294;51.106;7.028;2022-10-16T01:58:30;1.80;;;1.80;;
18336;SDS011;9294;51.106;7.028;2022-10-16T02:01:03;2.03;;;1.92;;
18336;SDS011;9294;51.106;7.028;2022-10-16T02:03:33;2.03;;;1.92;;
18336;SDS011;9294;51.106;7.028;2022-10-16T02:06:02;1.88;;;1.77;;
18336;SDS011;9294;51.106;7.028;2022-10-16T02:08:30;2.08;;;1.98;;
18336;SDS011;9294;51.106;7.028;2022-10-16T02:10:57;2.33;;;1.88;;
18336;SDS011;9294;51.106;7.028;2022-10-16T02:13:26;2.08;;;2.00;;
18336;SDS011;9294;51.106;7.028;2022-10-16T02:15:57;1.60;;;1.60;;
18336;SDS011;9294;51.106;7.028;2022-10-16T02:18:25;1.83;;;1.83;;
18336;SDS011;9294;51.106;7.028;2022-10-16T02:20:55;1.60;;;1.60;;
18336;SDS011;9294;51.106;7.028;2022-10-16T02:23:27;2.15;;;2.05;;
18336;SDS011;9294;51.106;7.028;2022-10-16T02:26:01;2.10;;;2.00;;
18336;SDS011;9294;51.106;7.028;2022-10-16T02:28:32;1.85;;;1.85;;
18336;SDS011;9294;51.106;7.028;2022-10-16T02:31:06;2.35;;;2.25;;
18336;SDS011;9294;51.106;7.028;2022-10-16T02:33:37;2.00;;;1.92;;
18336;SDS011;9294;51.106;7.028;2022-10-16T02:36:06;2.17;;;2.08;;
18336;SDS011;9294;51.106;7.028;2022-10-16T02:38:34;2.17;;;2.08;;
18336;SDS011;9294;51.106;7.028;2022-10-16T02:41:01;2.00;;;1.90;;
18336;SDS011;9294;51.106;7.028;2022-10-16T02:43:29;2.30;;;2.20;;
18336;SDS011;9294;51.106;7.028;2022-10-16T02:45:56;1.80;;;1.70;;
18336;SDS011;9294;51.106;7.028;2022-10-16T02:48:24;2.03;;;1.92;;
18336;SDS011;9294;51.106;7.028;2022-10-16T02:50:51;1.80;;;1.80;;
18336;SDS011;9294;51.106;7.028;2022-10-16T02:53:17;1.70;;;1.70;;
18336;SDS011;9294;51.106;7.028;2022-10-16T02:55:44;1.52;;;1.52;;
18336;SDS011;9294;51.106;7.028;2022-10-16T02:58:11;1.80;;;1.70;;
18336;SDS011;9294;51.106;7.028;2022-10-16T03:00:38;1.80;;;1.70;;
18336;SDS011;9294;51.106;7.028;2022-10-16T03:03:05;2.08;;;2.08;;
18336;SDS011;9294;51.106;7.028;2022-10-16T03:05:33;1.92;;;1.92;;
18336;SDS011;9294;51.106;7.028;2022-10-16T03:08:00;1.98;;;1.88;;
18336;SDS011;9294;51.106;7.028;2022-10-16T03:10:27;1.73;;;1.73;;
18336;SDS011;9294;51.106;7.028;2022-10-16T03:12:54;1.75;;;1.75;;
18336;SDS011;9294;51.106;7.028;2022-10-16T03:15:21;2.13;;;2.03;;
18336;SDS011;9294;51.106;7.028;2022-10-16T03:17:47;1.60;;;1.60;;
18336;SDS011;9294;51.106;7.028;2022-10-16T03:20:14;2.03;;;1.92;;
18336;SDS011;9294;51.106;7.028;2022-10-16T03:22:42;2.05;;;1.98;;
18336;SDS011;9294;51.106;7.028;2022-10-16T03:25:09;1.73;;;1.70;;
18336;SDS011;9294;51.106;7.028;2022-10-16T03:27:36;1.45;;;1.45;;
18336;SDS011;9294;51.106;7.028;2022-10-16T03:30:03;1.80;;;1.75;;
18336;SDS011;9294;51.106;7.028;2022-10-16T03:32:31;1.70;;;1.70;;
18336;SDS011;9294;51.106;7.028;2022-10-16T03:34:58;1.70;;;1.70;;
18336;SDS011;9294;51.106;7.028;2022-10-16T03:37:24;1.73;;;1.73;;
18336;SDS011;9294;51.106;7.028;2022-10-16T03:39:53;1.80;;;1.80;;
18336;SDS011;9294;51.106;7.028;2022-10-16T03:42:19;1.80;;;1.70;;
18336;SDS011;9294;51.106;7.028;2022-10-16T03:44:46;2.13;;;2.03;;
18336;SDS011;9294;51.106;7.028;2022-10-16T03:47:13;1.45;;;1.38;;
18336;SDS011;9294;51.106;7.028;2022-10-16T03:49:40;1.77;;;1.77;;
18336;SDS011;9294;51.106;7.028;2022-10-16T03:52:07;2.13;;;2.00;;
18336;SDS011;9294;51.106;7.028;2022-10-16T03:54:33;1.67;;;1.67;;
18336;SDS011;9294;51.106;7.028;2022-10-16T03:57:02;1.73;;;1.73;;
18336;SDS011;9294;51.106;7.028;2022-10-16T03:59:29;1.70;;;1.70;;
18336;SDS011;9294;51.106;7.028;2022-10-16T04:01:55;1.63;;;1.63;;
18336;SDS011;9294;51.106;7.028;2022-10-16T04:04:22;1.55;;;1.55;;
18336;SDS011;9294;51.106;7.028;2022-10-16T04:06:50;1.80;;;1.80;;
18336;SDS011;9294;51.106;7.028;2022-10-16T04:09:16;1.80;;;1.80;;
18336;SDS011;9294;51.106;7.028;2022-10-16T04:11:43;1.42;;;1.42;;
18336;SDS011;9294;51.106;7.028;2022-10-16T04:14:12;1.80;;;1.70;;
18336;SDS011;9294;51.106;7.028;2022-10-16T04:16:38;1.90;;;1.85;;
18336;SDS011;9294;51.106;7.028;2022-10-16T04:19:05;1.75;;;1.65;;
18336;SDS011;9294;51.106;7.028;2022-10-16T04:21:32;1.50;;;1.50;;
18336;SDS011;9294;51.106;7.028;2022-10-16T04:23:59;1.60;;;1.60;;
18336;SDS011;9294;51.106;7.028;2022-10-16T04:26:26;1.50;;;1.50;;
18336;SDS011;9294;51.106;7.028;2022-10-16T04:28:52;2.20;;;2.10;;
18336;SDS011;9294;51.106;7.028;2022-10-16T04:31:21;1.70;;;1.70;;
18336;SDS011;9294;51.106;7.028;2022-10-16T04:33:47;1.70;;;1.70;;
18336;SDS011;9294;51.106;7.028;2022-10-16T04:36:14;1.60;;;1.60;;
18336;SDS011;9294;51.106;7.028;2022-10-16T04:38:41;1.90;;;1.80;;
18336;SDS011;9294;51.106;7.028;2022-10-16T04:41:08;1.40;;;1.40;;
18336;SDS011;9294;51.106;7.028;2022-10-16T04:43:35;1.48;;;1.48;;
18336;SDS011;9294;51.106;7.028;2022-10-16T04:46:01;1.50;;;1.48;;
18336;SDS011;9294;51.106;7.028;2022-10-16T04:48:31;1.70;;;1.70;;
18336;SDS011;9294;51.106;7.028;2022-10-16T04:50:58;1.50;;;1.50;;
18336;SDS011;9294;51.106;7.028;2022-10-16T04:53:25;1.60;;;1.60;;
18336;SDS011;9294;51.106;7.028;2022-10-16T04:55:52;1.70;;;1.70;;
18336;SDS011;9294;51.106;7.028;2022-10-16T04:58:18;1.50;;;1.50;;
18336;SDS011;9294;51.106;7.028;2022-10-16T05:00:45;1.90;;;1.80;;
18336;SDS011;9294;51.106;7.028;2022-10-16T05:03:12;1.35;;;1.35;;
18336;SDS011;9294;51.106;7.028;2022-10-16T05:05:43;1.90;;;1.80;;
18336;SDS011;9294;51.106;7.028;2022-10-16T05:08:11;1.40;;;1.40;;
18336;SDS011;9294;51.106;7.028;2022-10-16T05:10:38;1.90;;;1.90;;
18336;SDS011;9294;51.106;7.028;2022-10-16T05:13:05;1.50;;;1.50;;
18336;SDS011;9294;51.106;7.028;2022-10-16T05:15:32;1.50;;;1.50;;
18336;SDS011;9294;51.106;7.028;2022-10-16T05:17:59;1.60;;;1.60;;
18336;SDS011;9294;51.106;7.028;2022-10-16T05:20:26;1.50;;;1.50;;
18336;SDS011;9294;51.106;7.028;2022-10-16T05:22:54;1.38;;;1.38;;
18336;SDS011;9294;51.106;7.028;2022-10-16T05:25:21;1.50;;;1.50;;
18336;SDS011;9294;51.106;7.028;2022-10-16T05:27:48;1.65;;;1.65;;
18336;SDS011;9294;51.106;7.028;2022-10-16T05:30:15;1.20;;;1.20;;
18336;SDS011;9294;51.106;7.028;2022-10-16T05:32:45;1.50;;;1.50;;
18336;SDS011;9294;51.106;7.028;2022-10-16T05:35:13;1.77;;;1.77;;
18336;SDS011;9294;51.106;7.028;2022-10-16T05:37:41;1.42;;;1.42;;
18336;SDS011;9294;51.106;7.028;2022-10-16T05:40:09;1.75;;;1.75;;
18336;SDS011;9294;51.106;7.028;2022-10-16T05:42:37;1.63;;;1.63;;
18336;SDS011;9294;51.106;7.028;2022-10-16T05:45:05;1.48;;;1.48;;
18336;SDS011;9294;51.106;7.028;2022-10-16T05:47:34;1.40;;;1.40;;
18336;SDS011;9294;51.106;7.028;2022-10-16T05:50:01;1.20;;;1.20;;
18336;SDS011;9294;51.106;7.028;2022-10-16T05:52:29;1.42;;;1.40;;
18336;SDS011;9294;51.106;7.028;2022-10-16T05:54:58;1.20;;;1.20;;
18336;SDS011;9294;51.106;7.028;2022-10-16T05:57:27;1.30;;;1.30;;
18336;SDS011;9294;51.106;7.028;2022-10-16T05:59:54;1.38;;;1.35;;
18336;SDS011;9294;51.106;7.028;2022-10-16T06:02:22;1.27;;;1.27;;
18336;SDS011;9294;51.106;7.028;2022-10-16T06:04:48;1.42;;;1.42;;
18336;SDS011;9294;51.106;7.028;2022-10-16T06:07:18;1.23;;;1.23;;
18336;SDS011;9294;51.106;7.028;2022-10-16T06:09:47;2.95;;;1.80;;
18336;SDS011;9294;51.106;7.028;2022-10-16T06:12:14;1.38;;;1.38;;
18336;SDS011;9294;51.106;7.028;2022-10-16T06:14:44;1.70;;;1.60;;
18336;SDS011;9294;51.106;7.028;2022-10-16T06:17:14;1.50;;;1.50;;
18336;SDS011;9294;51.106;7.028;2022-10-16T06:19:41;1.90;;;1.80;;
18336;SDS011;9294;51.106;7.028;2022-10-16T06:22:08;1.85;;;1.40;;
18336;SDS011;9294;51.106;7.028;2022-10-16T06:24:34;1.75;;;1.65;;
18336;SDS011;9294;51.106;7.028;2022-10-16T06:27:02;1.85;;;1.75;;
18336;SDS011;9294;51.106;7.028;2022-10-16T06:29:32;2.83;;;2.30;;
18336;SDS011;9294;51.106;7.028;2022-10-16T06:32:00;2.10;;;1.83;;
18336;SDS011;9294;51.106;7.028;2022-10-16T06:34:27;2.10;;;2.00;;
18336;SDS011;9294;51.106;7.028;2022-10-16T06:36:54;1.75;;;1.65;;
18336;SDS011;9294;51.106;7.028;2022-10-16T06:39:21;1.77;;;1.67;;
18336;SDS011;9294;51.106;7.028;2022-10-16T06:41:47;2.40;;;2.10;;
18336;SDS011;9294;51.106;7.028;2022-10-16T06:44:14;1.63;;;1.38;;
18336;SDS011;9294;51.106;7.028;2022-10-16T06:46:41;2.00;;;1.85;;
18336;SDS011;9294;51.106;7.028;2022-10-16T06:49:09;1.92;;;1.83;;
18336;SDS011;9294;51.106;7.028;2022-10-16T06:51:36;1.33;;;1.33;;
18336;SDS011;9294;51.106;7.028;2022-10-16T06:54:08;2.47;;;1.63;;
18336;SDS011;9294;51.106;7.028;2022-10-16T06:56:35;1.70;;;1.60;;
18336;SDS011;9294;51.106;7.028;2022-10-16T06:59:02;1.50;;;1.50;;
18336;SDS011;9294;51.106;7.028;2022-10-16T07:01:32;2.05;;;1.50;;
18336;SDS011;9294;51.106;7.028;2022-10-16T07:04:02;1.50;;;1.40;;
18336;SDS011;9294;51.106;7.028;2022-10-16T07:06:31;3.05;;;1.75;;
18336;SDS011;9294;51.106;7.028;2022-10-16T07:09:02;3.38;;;1.67;;
18336;SDS011;9294;51.106;7.028;2022-10-16T07:11:33;4.43;;;1.40;;
18336;SDS011;9294;51.106;7.028;2022-10-16T07:14:03;1.35;;;1.35;;
18336;SDS011;9294;51.106;7.028;2022-10-16T07:16:33;2.40;;;1.55;;
18336;SDS011;9294;51.106;7.028;2022-10-16T07:19:01;3.10;;;1.40;;
18336;SDS011;9294;51.106;7.028;2022-10-16T07:21:29;1.10;;;1.10;;
18336;SDS011;9294;51.106;7.028;2022-10-16T07:24:00;1.92;;;1.42;;
18336;SDS011;9294;51.106;7.028;2022-10-16T07:26:28;2.08;;;1.63;;
18336;SDS011;9294;51.106;7.028;2022-10-16T07:28:59;1.27;;;1.27;;
18336;SDS011;9294;51.106;7.028;2022-10-16T07:31:26;1.73;;;1.63;;
18336;SDS011;9294;51.106;7.028;2022-10-16T07:33:53;2.05;;;1.40;;
18336;SDS011;9294;51.106;7.028;2022-10-16T07:36:20;1.20;;;1.20;;
18336;SDS011;9294;51.106;7.028;2022-10-16T07:38:49;1.50;;;1.50;;
18336;SDS011;9294;51.106;7.028;2022-10-16T07:41:16;3.22;;;2.47;;
18336;SDS011;9294;51.106;7.028;2022-10-16T07:43:45;1.60;;;1.50;;
18336;SDS011;9294;51.106;7.028;2022-10-16T07:46:12;1.30;;;1.30;;
18336;SDS011;9294;51.106;7.028;2022-10-16T07:48:39;1.48;;;1.40;;
18336;SDS011;9294;51.106;7.028;2022-10-16T07:51:10;2.92;;;2.03;;
18336;SDS011;9294;51.106;7.028;2022-10-16T07:53:38;2.17;;;1.60;;
18336;SDS011;9294;51.106;7.028;2022-10-16T07:56:07;10.52;;;1.92;;
18336;SDS011;9294;51.106;7.028;2022-10-16T07:58:34;5.13;;;1.95;;
18336;SDS011;9294;51.106;7.028;2022-10-16T08:01:03;4.68;;;2.10;;
18336;SDS011;9294;51.106;7.028;2022-10-16T08:03:31;4.20;;;1.75;;
18336;SDS011;9294;51.106;7.028;2022-10-16T08:05:58;3.30;;;1.63;;
18336;SDS011;9294;51.106;7.028;2022-10-16T08:08:26;3.03;;;1.70;;
18336;SDS011;9294;51.106;7.028;2022-10-16T08:10:53;3.67;;;1.48;;
18336;SDS011;9294;51.106;7.028;2022-10-16T08:13:21;6.78;;;1.80;;
18336;SDS011;9294;51.106;7.028;2022-10-16T08:15:49;3.67;;;2.05;;
18336;SDS011;9294;51.106;7.028;2022-10-16T08:18:16;2.97;;;2.10;;
18336;SDS011;9294;51.106;7.028;2022-10-16T08:20:42;7.13;;;2.35;;
18336;SDS011;9294;51.106;7.028;2022-10-16T08:23:09;5.57;;;1.83;;
18336;SDS011;9294;51.106;7.028;2022-10-16T08:25:38;3.70;;;2.00;;
18336;SDS011;9294;51.106;7.028;2022-10-16T08:28:07;10.43;;;2.50;;
18336;SDS011;9294;51.106;7.028;2022-10-16T08:30:38;5.30;;;2.47;;
18336;SDS011;9294;51.106;7.028;2022-10-16T08:33:05;2.90;;;2.03;;
18336;SDS011;9294;51.106;7.028;2022-10-16T08:35:32;7.68;;;1.98;;
18336;SDS011;9294;51.106;7.028;2022-10-16T08:37:59;6.47;;;2.28;;
18336;SDS011;9294;51.106;7.028;2022-10-16T08:40:26;5.57;;;2.42;;
18336;SDS011;9294;51.106;7.028;2022-10-16T08:43:00;4.38;;;1.90;;
18336;SDS011;9294;51.106;7.028;2022-10-16T08:46:00;4.80;;;2.30;;
18336;SDS011;9294;51.106;7.028;2022-10-16T08:48:42;2.72;;;1.80;;
18336;SDS011;9294;51.106;7.028;2022-10-16T08:51:14;3.50;;;1.90;;
18336;SDS011;9294;51.106;7.028;2022-10-16T08:53:46;3.22;;;1.83;;
18336;SDS011;9294;51.106;7.028;2022-10-16T08:56:18;4.78;;;2.58;;
18336;SDS011;9294;51.106;7.028;2022-10-16T08:58:45;4.68;;;2.20;;
18336;SDS011;9294;51.106;7.028;2022-10-16T09:01:15;4.80;;;2.45;;
18336;SDS011;9294;51.106;7.028;2022-10-16T09:03:57;2.92;;;2.17;;
18336;SDS011;9294;51.106;7.028;2022-10-16T09:06:50;5.88;;;2.50;;
18336;SDS011;9294;51.106;7.028;2022-10-16T09:09:25;6.10;;;2.53;;
18336;SDS011;9294;51.106;7.028;2022-10-16T09:12:21;6.15;;;2.53;;
18336;SDS011;9294;51.106;7.028;2022-10-16T09:15:13;5.53;;;2.40;;
18336;SDS011;9294;51.106;7.028;2022-10-16T09:17:55;6.70;;;2.83;;
18336;SDS011;9294;51.106;7.028;2022-10-16T09:20:35;7.43;;;2.70;;
18336;SDS011;9294;51.106;7.028;2022-10-16T09:23:14;6.32;;;2.75;;
18336;SDS011;9294;51.106;7.028;2022-10-16T09:25:47;10.20;;;2.58;;
18336;SDS011;9294;51.106;7.028;2022-10-16T09:28:17;9.40;;;2.78;;
18336;SDS011;9294;51.106;7.028;2022-10-16T09:30:45;6.68;;;2.70;;
18336;SDS011;9294;51.106;7.028;2022-10-16T09:33:14;6.22;;;2.60;;
18336;SDS011;9294;51.106;7.028;2022-10-16T09:35:44;8.52;;;2.67;;
18336;SDS011;9294;51.106;7.028;2022-10-16T09:38:23;6.07;;;2.17;;
18336;SDS011;9294;51.106;7.028;2022-10-16T09:40:52;3.22;;;2.10;;
18336;SDS011;9294;51.106;7.028;2022-10-16T09:43:21;3.05;;;1.95;;
18336;SDS011;9294;51.106;7.028;2022-10-16T09:45:53;7.72;;;1.95;;
18336;SDS011;9294;51.106;7.028;2022-10-16T09:48:23;1.98;;;1.75;;
18336;SDS011;9294;51.106;7.028;2022-10-16T09:50:56;3.80;;;1.85;;
18336;SDS011;9294;51.106;7.028;2022-10-16T09:53:26;2.75;;;1.80;;
18336;SDS011;9294;51.106;7.028;2022-10-16T09:56:09;8.07;;;2.63;;
18336;SDS011;9294;51.106;7.028;2022-10-16T09:58:41;5.95;;;2.10;;
18336;SDS011;9294;51.106;7.028;2022-10-16T10:01:12;3.97;;;2.20;;
18336;SDS011;9294;51.106;7.028;2022-10-16T10:03:42;5.20;;;2.40;;
18336;SDS011;9294;51.106;7.028;2022-10-16T10:06:17;8.52;;;2.47;;
18336;SDS011;9294;51.106;7.028;2022-10-16T10:11:44;4.15;;;2.42;;
18336;SDS011;9294;51.106;7.028;2022-10-16T10:14:27;3.45;;;2.00;;
18336;SDS011;9294;51.106;7.028;2022-10-16T10:17:12;3.45;;;2.05;;
18336;SDS011;9294;51.106;7.028;2022-10-16T10:19:42;6.20;;;2.42;;
18336;SDS011;9294;51.106;7.028;2022-10-16T10:22:25;5.82;;;1.90;;
18336;SDS011;9294;51.106;7.028;2022-10-16T10:24:56;4.60;;;2.10;;
18336;SDS011;9294;51.106;7.028;2022-10-16T10:27:30;6.03;;;2.47;;
18336;SDS011;9294;51.106;7.028;2022-10-16T10:30:06;3.30;;;1.77;;
18336;SDS011;9294;51.106;7.028;2022-10-16T10:32:42;5.05;;;2.63;;
18336;SDS011;9294;51.106;7.028;2022-10-16T10:35:20;4.38;;;1.90;;
18336;SDS011;9294;51.106;7.028;2022-10-16T10:37:54;2.97;;;1.98;;
18336;SDS011;9294;51.106;7.028;2022-10-16T10:40:32;3.10;;;1.60;;
18336;SDS011;9294;51.106;7.028;2022-10-16T10:43:11;4.38;;;1.77;;
18336;SDS011;9294;51.106;7.028;2022-10-16T10:45:48;2.50;;;2.15;;
18336;SDS011;9294;51.106;7.028;2022-10-16T10:48:27;2.70;;;1.75;;
18336;SDS011;9294;51.106;7.028;2022-10-16T10:51:27;2.72;;;2.10;;
18336;SDS011;9294;51.106;7.028;2022-10-16T10:54:04;3.50;;;1.88;;
18336;SDS011;9294;51.106;7.028;2022-10-16T10:56:41;4.50;;;1.98;;
18336;SDS011;9294;51.106;7.028;2022-10-16T11:01:59;4.50;;;1.70;;
18336;SDS011;9294;51.106;7.028;2022-10-16T11:07:27;2.45;;;1.85;;
18336;SDS011;9294;51.106;7.028;2022-10-16T11:09:57;2.30;;;2.00;;
18336;SDS011;9294;51.106;7.028;2022-10-16T11:12:29;2.70;;;1.85;;
18336;SDS011;9294;51.106;7.028;2022-10-16T11:15:01;2.53;;;1.73;;
18336;SDS011;9294;51.106;7.028;2022-10-16T11:17:31;5.97;;;2.05;;
18336;SDS011;9294;51.106;7.028;2022-10-16T11:20:04;1.50;;;1.40;;
18336;SDS011;9294;51.106;7.028;2022-10-16T11:22:41;3.60;;;2.05;;
18336;SDS011;9294;51.106;7.028;2022-10-16T11:25:13;2.90;;;1.73;;
18336;SDS011;9294;51.106;7.028;2022-10-16T11:27:43;1.70;;;1.58;;
18336;SDS011;9294;51.106;7.028;2022-10-16T11:30:14;2.08;;;1.60;;
18336;SDS011;9294;51.106;7.028;2022-10-16T11:32:49;1.88;;;1.67;;
18336;SDS011;9294;51.106;7.028;2022-10-16T11:35:23;1.70;;;1.60;;
18336;SDS011;9294;51.106;7.028;2022-10-16T11:37:58;3.28;;;1.50;;
18336;SDS011;9294;51.106;7.028;2022-10-16T11:40:29;3.92;;;1.60;;
18336;SDS011;9294;51.106;7.028;2022-10-16T11:43:00;1.63;;;1.15;;
18336;SDS011;9294;51.106;7.028;2022-10-16T11:45:33;1.75;;;1.45;;
18336;SDS011;9294;51.106;7.028;2022-10-16T11:48:07;1.52;;;1.35;;
18336;SDS011;9294;51.106;7.028;2022-10-16T11:50:45;1.60;;;1.50;;
18336;SDS011;9294;51.106;7.028;2022-10-16T11:53:21;1.48;;;1.30;;
18336;SDS011;9294;51.106;7.028;2022-10-16T11:56:00;1.60;;;1.50;;
18336;SDS011;9294;51.106;7.028;2022-10-16T11:58:28;2.38;;;1.13;;
18336;SDS011;9294;51.106;7.028;2022-10-16T12:01:01;1.70;;;1.52;;
18336;SDS011;9294;51.106;7.028;2022-10-16T12:03:39;2.05;;;1.70;;
18336;SDS011;9294;51.106;7.028;2022-10-16T12:06:25;1.58;;;1.20;;
18336;SDS011;9294;51.106;7.028;2022-10-16T12:08:59;2.85;;;1.48;;
18336;SDS011;9294;51.106;7.028;2022-10-16T12:11:34;1.30;;;1.30;;
18336;SDS011;9294;51.106;7.028;2022-10-16T12:14:03;3.20;;;1.40;;
18336;SDS011;9294;51.106;7.028;2022-10-16T12:16:54;1.50;;;1.38;;
18336;SDS011;9294;51.106;7.028;2022-10-16T12:19:22;2.35;;;1.55;;
18336;SDS011;9294;51.106;7.028;2022-10-16T12:21:52;1.50;;;1.40;;
18336;SDS011;9294;51.106;7.028;2022-10-16T12:24:29;1.40;;;1.30;;
18336;SDS011;9294;51.106;7.028;2022-10-16T12:27:01;1.92;;;1.45;;
18336;SDS011;9294;51.106;7.028;2022-10-16T12:29:32;1.10;;;1.10;;
18336;SDS011;9294;51.106;7.028;2022-10-16T12:32:00;1.48;;;1.40;;
18336;SDS011;9294;51.106;7.028;2022-10-16T12:34:32;1.30;;;1.30;;
18336;SDS011;9294;51.106;7.028;2022-10-16T12:37:08;1.17;;;1.17;;
18336;SDS011;9294;51.106;7.028;2022-10-16T12:39:38;1.10;;;1.10;;
18336;SDS011;9294;51.106;7.028;2022-10-16T12:42:19;2.20;;;1.20;;
18336;SDS011;9294;51.106;7.028;2022-10-16T12:44:58;1.40;;;1.25;;
18336;SDS011;9294;51.106;7.028;2022-10-16T12:47:35;1.70;;;1.08;;
18336;SDS011;9294;51.106;7.028;2022-10-16T12:50:21;1.42;;;1.33;;
18336;SDS011;9294;51.106;7.028;2022-10-16T12:52:55;1.40;;;1.30;;
18336;SDS011;9294;51.106;7.028;2022-10-16T12:55:24;1.50;;;1.40;;
18336;SDS011;9294;51.106;7.028;2022-10-16T13:00:45;2.45;;;1.27;;
18336;SDS011;9294;51.106;7.028;2022-10-16T13:03:37;1.20;;;1.20;;
18336;SDS011;9294;51.106;7.028;2022-10-16T13:06:33;1.05;;;1.05;;
18336;SDS011;9294;51.106;7.028;2022-10-16T13:12:05;1.38;;;1.27;;
18336;SDS011;9294;51.106;7.028;2022-10-16T13:14:46;2.00;;;1.48;;
18336;SDS011;9294;51.106;7.028;2022-10-16T13:17:36;1.98;;;1.88;;
18336;SDS011;9294;51.106;7.028;2022-10-16T13:20:13;1.50;;;1.40;;
18336;SDS011;9294;51.106;7.028;2022-10-16T13:22:50;1.23;;;1.20;;
18336;SDS011;9294;51.106;7.028;2022-10-16T13:25:28;1.20;;;1.20;;
18336;SDS011;9294;51.106;7.028;2022-10-16T13:28:04;1.15;;;1.15;;
18336;SDS011;9294;51.106;7.028;2022-10-16T13:30:34;1.30;;;1.27;;
18336;SDS011;9294;51.106;7.028;2022-10-16T13:33:06;1.20;;;1.20;;
18336;SDS011;9294;51.106;7.028;2022-10-16T13:35:46;1.58;;;1.23;;
18336;SDS011;9294;51.106;7.028;2022-10-16T13:38:15;1.00;;;1.00;;
18336;SDS011;9294;51.106;7.028;2022-10-16T13:40:53;1.42;;;1.20;;
18336;SDS011;9294;51.106;7.028;2022-10-16T13:43:23;0.98;;;0.98;;
18336;SDS011;9294;51.106;7.028;2022-10-16T13:45:56;1.45;;;1.20;;
18336;SDS011;9294;51.106;7.028;2022-10-16T13:48:25;2.20;;;1.98;;
18336;SDS011;9294;51.106;7.028;2022-10-16T13:50:58;1.25;;;1.25;;
18336;SDS011;9294;51.106;7.028;2022-10-16T13:53:38;1.25;;;1.20;;
18336;SDS011;9294;51.106;7.028;2022-10-16T13:56:06;1.30;;;1.30;;
18336;SDS011;9294;51.106;7.028;2022-10-16T13:58:38;1.10;;;1.10;;
18336;SDS011;9294;51.106;7.028;2022-10-16T14:01:05;1.17;;;1.17;;
18336;SDS011;9294;51.106;7.028;2022-10-16T14:03:41;1.20;;;1.20;;
18336;SDS011;9294;51.106;7.028;2022-10-16T14:06:11;2.35;;;1.40;;
18336;SDS011;9294;51.106;7.028;2022-10-16T14:08:41;1.10;;;1.10;;
18336;SDS011;9294;51.106;7.028;2022-10-16T14:11:09;1.00;;;1.00;;
18336;SDS011;9294;51.106;7.028;2022-10-16T14:13:38;1.20;;;1.20;;
18336;SDS011;9294;51.106;7.028;2022-10-16T14:16:09;1.05;;;1.05;;
18336;SDS011;9294;51.106;7.028;2022-10-16T14:18:44;1.23;;;1.23;;
18336;SDS011;9294;51.106;7.028;2022-10-16T14:21:16;1.33;;;1.25;;
18336;SDS011;9294;51.106;7.028;2022-10-16T14:23:44;1.10;;;1.00;;
18336;SDS011;9294;51.106;7.028;2022-10-16T14:26:12;1.00;;;1.00;;
18336;SDS011;9294;51.106;7.028;2022-10-16T14:28:42;1.00;;;1.00;;
18336;SDS011;9294;51.106;7.028;2022-10-16T14:31:26;1.65;;;1.55;;
18336;SDS011;9294;51.106;7.028;2022-10-16T14:33:55;1.10;;;1.10;;
18336;SDS011;9294;51.106;7.028;2022-10-16T14:36:22;1.23;;;1.23;;
18336;SDS011;9294;51.106;7.028;2022-10-16T14:38:57;1.25;;;1.20;;
18336;SDS011;9294;51.106;7.028;2022-10-16T14:41:27;1.48;;;1.40;;
18336;SDS011;9294;51.106;7.028;2022-10-16T14:43:56;1.00;;;1.00;;
18336;SDS011;9294;51.106;7.028;2022-10-16T14:46:28;1.30;;;1.20;;
18336;SDS011;9294;51.106;7.028;2022-10-16T14:49:00;1.10;;;1.10;;
18336;SDS011;9294;51.106;7.028;2022-10-16T14:51:29;1.10;;;1.10;;
18336;SDS011;9294;51.106;7.028;2022-10-16T14:53:56;0.90;;;0.90;;
18336;SDS011;9294;51.106;7.028;2022-10-16T14:56:24;1.30;;;1.20;;
18336;SDS011;9294;51.106;7.028;2022-10-16T14:58:56;1.15;;;1.15;;
18336;SDS011;9294;51.106;7.028;2022-10-16T15:01:23;1.10;;;1.10;;
18336;SDS011;9294;51.106;7.028;2022-10-16T15:03:50;1.00;;;1.00;;
18336;SDS011;9294;51.106;7.028;2022-10-16T15:06:19;1.55;;;1.00;;
18336;SDS011;9294;51.106;7.028;2022-10-16T15:08:47;1.52;;;1.30;;
18336;SDS011;9294;51.106;7.028;2022-10-16T15:11:14;1.20;;;1.20;;
18336;SDS011;9294;51.106;7.028;2022-10-16T15:13:43;1.88;;;1.25;;
18336;SDS011;9294;51.106;7.028;2022-10-16T15:16:12;1.13;;;1.13;;
18336;SDS011;9294;51.106;7.028;2022-10-16T15:18:41;0.90;;;0.90;;
18336;SDS011;9294;51.106;7.028;2022-10-16T15:21:08;1.20;;;1.20;;
18336;SDS011;9294;51.106;7.028;2022-10-16T15:23:36;1.45;;;1.20;;
18336;SDS011;9294;51.106;7.028;2022-10-16T15:26:03;1.13;;;1.13;;
18336;SDS011;9294;51.106;7.028;2022-10-16T15:28:31;2.95;;;1.55;;
18336;SDS011;9294;51.106;7.028;2022-10-16T15:30:57;2.15;;;1.50;;
18336;SDS011;9294;51.106;7.028;2022-10-16T15:33:27;4.28;;;1.75;;
18336;SDS011;9294;51.106;7.028;2022-10-16T15:35:58;6.70;;;1.98;;